sensor_id;sensor_type;location;lat;lon;timestamp;temperature;humidity
25668;DHT22;18003;-33.830;151.202;2023-04-03T00:00:31;20.10;99.90
25668;DHT22;18003;-33.830;151.202;2023-04-03T00:03:01;20.10;99.90
25668;DHT22;18003;-33.830;151.202;2023-04-03T00:05:31;20.00;99.90
25668;DHT22;18003;-33.830;151.202;2023-04-03T00:08:01;20.10;99.90
25668;DHT22;18003;-33.830;151.202;2023-04-03T00:10:32;20.30;99.90
25668;DHT22;18003;-33.830;151.202;2023-04-03T00:13:03;20.30;99.90
25668;DHT22;18003;-33.830;151.202;2023-04-03T00:15:33;20.20;99.90
25668;DHT22;18003;-33.830;151.202;2023-04-03T00:18:04;20.10;99.90
25668;DHT22;18003;-33.830;151.202;2023-04-03T00:20:34;20.10;99.90
25668;DHT22;18003;-33.830;151.202;2023-04-03T00:23:04;20.30;99.90
25668;DHT22;18003;-33.830;151.202;2023-04-03T00:25:34;20.40;99.90
25668;DHT22;18003;-33.830;151.202;2023-04-03T00:28:05;20.30;99.90
25668;DHT22;18003;-33.830;151.202;2023-04-03T00:30:35;20.30;99.90
25668;DHT22;18003;-33.830;151.202;2023-04-03T00:33:06;20.20;99.90
25668;DHT22;18003;-33.830;151.202;2023-04-03T00:35:36;20.30;99.90
25668;DHT22;18003;-33.830;151.202;2023-04-03T00:38:06;20.50;99.90
25668;DHT22;18003;-33.830;151.202;2023-04-03T00:40:38;20.40;99.90
25668;DHT22;18003;-33.830;151.202;2023-04-03T00:43:22;20.30;99.90
25668;DHT22;18003;-33.830;151.202;2023-04-03T00:45:58;20.30;99.90
25668;DHT22;18003;-33.830;151.202;2023-04-03T00:50:59;20.60;99.90
25668;DHT22;18003;-33.830;151.202;2023-04-03T00:53:37;20.50;99.90
25668;DHT22;18003;-33.830;151.202;2023-04-03T00:56:13;20.40;99.90
25668;DHT22;18003;-33.830;151.202;2023-04-03T00:58:53;20.30;99.90
25668;DHT22;18003;-33.830;151.202;2023-04-03T01:01:21;20.30;99.90
25668;DHT22;18003;-33.830;151.202;2023-04-03T01:03:51;20.60;99.90
25668;DHT22;18003;-33.830;151.202;2023-04-03T01:06:23;20.60;99.90
25668;DHT22;18003;-33.830;151.202;2023-04-03T01:08:53;20.50;99.90
25668;DHT22;18003;-33.830;151.202;2023-04-03T01:11:23;20.40;99.90
25668;DHT22;18003;-33.830;151.202;2023-04-03T01:13:54;20.40;99.90
25668;DHT22;18003;-33.830;151.202;2023-04-03T01:16:24;20.30;99.90
25668;DHT22;18003;-33.830;151.202;2023-04-03T01:18:55;20.30;99.90
25668;DHT22;18003;-33.830;151.202;2023-04-03T01:21:56;20.30;99.90
25668;DHT22;18003;-33.830;151.202;2023-04-03T01:24:40;20.30;99.90
25668;DHT22;18003;-33.830;151.202;2023-04-03T01:27:07;20.30;99.90
25668;DHT22;18003;-33.830;151.202;2023-04-03T01:29:40;20.30;99.90
25668;DHT22;18003;-33.830;151.202;2023-04-03T01:32:11;20.30;99.90
25668;DHT22;18003;-33.830;151.202;2023-04-03T01:34:42;20.30;99.90
25668;DHT22;18003;-33.830;151.202;2023-04-03T01:37:12;20.30;99.90
25668;DHT22;18003;-33.830;151.202;2023-04-03T01:39:42;20.30;99.90
25668;DHT22;18003;-33.830;151.202;2023-04-03T01:42:11;20.30;99.90
25668;DHT22;18003;-33.830;151.202;2023-04-03T01:44:42;20.30;99.90
25668;DHT22;18003;-33.830;151.202;2023-04-03T01:47:13;20.30;99.90
25668;DHT22;18003;-33.830;151.202;2023-04-03T01:49:43;20.30;99.90
25668;DHT22;18003;-33.830;151.202;2023-04-03T01:52:13;20.30;99.90
25668;DHT22;18003;-33.830;151.202;2023-04-03T01:54:43;20.30;99.90
25668;DHT22;18003;-33.830;151.202;2023-04-03T01:57:13;20.30;99.90
25668;DHT22;18003;-33.830;151.202;2023-04-03T01:59:43;20.30;99.90
25668;DHT22;18003;-33.830;151.202;2023-04-03T02:02:13;20.30;99.90
25668;DHT22;18003;-33.830;151.202;2023-04-03T02:04:43;20.30;99.90
25668;DHT22;18003;-33.830;151.202;2023-04-03T02:07:13;20.30;99.90
25668;DHT22;18003;-33.830;151.202;2023-04-03T02:09:43;20.30;99.90
25668;DHT22;18003;-33.830;151.202;2023-04-03T02:12:13;20.30;99.90
25668;DHT22;18003;-33.830;151.202;2023-04-03T02:14:43;20.30;99.90
25668;DHT22;18003;-33.830;151.202;2023-04-03T02:17:15;20.30;99.90
25668;DHT22;18003;-33.830;151.202;2023-04-03T02:19:45;20.30;99.90
25668;DHT22;18003;-33.830;151.202;2023-04-03T02:22:15;20.30;99.90
25668;DHT22;18003;-33.830;151.202;2023-04-03T02:24:45;20.30;99.90
25668;DHT22;18003;-33.830;151.202;2023-04-03T02:27:15;20.40;99.90
25668;DHT22;18003;-33.830;151.202;2023-04-03T02:29:45;20.30;99.90
25668;DHT22;18003;-33.830;151.202;2023-04-03T02:32:16;20.40;99.90
25668;DHT22;18003;-33.830;151.202;2023-04-03T02:34:46;20.40;99.90
25668;DHT22;18003;-33.830;151.202;2023-04-03T02:37:16;20.30;99.90
25668;DHT22;18003;-33.830;151.202;2023-04-03T02:39:46;20.30;99.90
25668;DHT22;18003;-33.830;151.202;2023-04-03T02:42:16;20.40;99.90
25668;DHT22;18003;-33.830;151.202;2023-04-03T02:44:46;20.40;99.90
25668;DHT22;18003;-33.830;151.202;2023-04-03T02:47:16;20.40;99.90
25668;DHT22;18003;-33.830;151.202;2023-04-03T02:49:46;20.40;99.90
25668;DHT22;18003;-33.830;151.202;2023-04-03T02:52:16;20.40;99.90
25668;DHT22;18003;-33.830;151.202;2023-04-03T02:57:22;20.40;99.90
25668;DHT22;18003;-33.830;151.202;2023-04-03T02:59:52;20.40;99.90
25668;DHT22;18003;-33.830;151.202;2023-04-03T03:02:22;20.40;99.90
25668;DHT22;18003;-33.830;151.202;2023-04-03T03:04:52;20.40;99.90
25668;DHT22;18003;-33.830;151.202;2023-04-03T03:07:23;20.40;99.90
25668;DHT22;18003;-33.830;151.202;2023-04-03T03:09:52;20.40;99.90
25668;DHT22;18003;-33.830;151.202;2023-04-03T03:12:22;20.40;99.90
25668;DHT22;18003;-33.830;151.202;2023-04-03T03:14:52;20.40;99.90
25668;DHT22;18003;-33.830;151.202;2023-04-03T03:17:23;20.40;99.90
25668;DHT22;18003;-33.830;151.202;2023-04-03T03:19:52;20.40;99.90
25668;DHT22;18003;-33.830;151.202;2023-04-03T03:22:23;20.40;99.90
25668;DHT22;18003;-33.830;151.202;2023-04-03T03:24:53;20.40;99.90
25668;DHT22;18003;-33.830;151.202;2023-04-03T03:27:23;20.40;99.90
25668;DHT22;18003;-33.830;151.202;2023-04-03T03:29:53;20.40;99.90
25668;DHT22;18003;-33.830;151.202;2023-04-03T03:32:23;20.40;99.90
25668;DHT22;18003;-33.830;151.202;2023-04-03T03:34:54;20.40;99.90
25668;DHT22;18003;-33.830;151.202;2023-04-03T03:37:24;20.40;99.90
25668;DHT22;18003;-33.830;151.202;2023-04-03T03:39:54;20.40;99.90
25668;DHT22;18003;-33.830;151.202;2023-04-03T03:42:24;20.40;99.90
25668;DHT22;18003;-33.830;151.202;2023-04-03T03:44:54;20.40;99.90
25668;DHT22;18003;-33.830;151.202;2023-04-03T03:47:24;20.40;99.90
25668;DHT22;18003;-33.830;151.202;2023-04-03T03:49:54;20.40;99.90
25668;DHT22;18003;-33.830;151.202;2023-04-03T03:52:24;20.40;99.90
25668;DHT22;18003;-33.830;151.202;2023-04-03T03:54:54;20.40;99.90
25668;DHT22;18003;-33.830;151.202;2023-04-03T03:57:24;20.40;99.90
25668;DHT22;18003;-33.830;151.202;2023-04-03T03:59:55;20.40;99.90
25668;DHT22;18003;-33.830;151.202;2023-04-03T04:02:25;20.40;99.90
25668;DHT22;18003;-33.830;151.202;2023-04-03T04:04:55;20.50;99.90
25668;DHT22;18003;-33.830;151.202;2023-04-03T04:07:25;20.50;99.90
25668;DHT22;18003;-33.830;151.202;2023-04-03T04:09:57;20.40;99.90
25668;DHT22;18003;-33.830;151.202;2023-04-03T04:12:27;20.40;99.90
25668;DHT22;18003;-33.830;151.202;2023-04-03T04:14:57;20.40;99.90
25668;DHT22;18003;-33.830;151.202;2023-04-03T04:17:27;20.50;99.90
25668;DHT22;18003;-33.830;151.202;2023-04-03T04:19:57;20.50;99.90
25668;DHT22;18003;-33.830;151.202;2023-04-03T04:22:27;20.60;99.90
25668;DHT22;18003;-33.830;151.202;2023-04-03T04:24:57;20.60;99.90
25668;DHT22;18003;-33.830;151.202;2023-04-03T04:27:27;20.70;99.90
25668;DHT22;18003;-33.830;151.202;2023-04-03T04:29:57;20.70;99.90
25668;DHT22;18003;-33.830;151.202;2023-04-03T04:32:28;20.70;99.90
25668;DHT22;18003;-33.830;151.202;2023-04-03T04:34:58;20.70;99.90
25668;DHT22;18003;-33.830;151.202;2023-04-03T04:37:29;20.80;99.90
25668;DHT22;18003;-33.830;151.202;2023-04-03T04:39:59;20.80;99.90
25668;DHT22;18003;-33.830;151.202;2023-04-03T04:42:29;20.80;99.90
25668;DHT22;18003;-33.830;151.202;2023-04-03T04:44:59;20.80;99.90
25668;DHT22;18003;-33.830;151.202;2023-04-03T04:47:30;20.80;99.90
25668;DHT22;18003;-33.830;151.202;2023-04-03T04:50:00;20.80;99.90
25668;DHT22;18003;-33.830;151.202;2023-04-03T04:52:30;20.80;99.90
25668;DHT22;18003;-33.830;151.202;2023-04-03T04:55:00;20.80;99.90
25668;DHT22;18003;-33.830;151.202;2023-04-03T04:57:30;20.80;99.90
25668;DHT22;18003;-33.830;151.202;2023-04-03T05:00:00;20.80;99.90
25668;DHT22;18003;-33.830;151.202;2023-04-03T05:02:31;20.80;99.90
25668;DHT22;18003;-33.830;151.202;2023-04-03T05:05:01;20.80;99.90
25668;DHT22;18003;-33.830;151.202;2023-04-03T05:07:31;20.80;99.90
25668;DHT22;18003;-33.830;151.202;2023-04-03T05:10:01;20.80;99.90
25668;DHT22;18003;-33.830;151.202;2023-04-03T05:12:31;20.80;99.90
25668;DHT22;18003;-33.830;151.202;2023-04-03T05:15:01;20.70;99.90
25668;DHT22;18003;-33.830;151.202;2023-04-03T05:17:31;20.80;99.90
25668;DHT22;18003;-33.830;151.202;2023-04-03T05:20:01;20.70;99.90
25668;DHT22;18003;-33.830;151.202;2023-04-03T05:22:32;20.80;99.90
25668;DHT22;18003;-33.830;151.202;2023-04-03T05:25:02;20.80;99.90
25668;DHT22;18003;-33.830;151.202;2023-04-03T05:27:33;20.80;99.90
25668;DHT22;18003;-33.830;151.202;2023-04-03T05:30:03;20.80;99.90
25668;DHT22;18003;-33.830;151.202;2023-04-03T05:32:33;20.80;99.90
25668;DHT22;18003;-33.830;151.202;2023-04-03T05:35:04;20.70;99.90
25668;DHT22;18003;-33.830;151.202;2023-04-03T05:37:34;20.80;99.90
25668;DHT22;18003;-33.830;151.202;2023-04-03T05:40:12;20.80;99.90
25668;DHT22;18003;-33.830;151.202;2023-04-03T05:42:37;20.80;99.90
25668;DHT22;18003;-33.830;151.202;2023-04-03T05:45:08;20.80;99.90
25668;DHT22;18003;-33.830;151.202;2023-04-03T05:47:38;20.70;99.90
25668;DHT22;18003;-33.830;151.202;2023-04-03T05:50:13;20.70;99.90
25668;DHT22;18003;-33.830;151.202;2023-04-03T05:52:41;20.70;99.90
25668;DHT22;18003;-33.830;151.202;2023-04-03T05:55:11;20.70;99.90
25668;DHT22;18003;-33.830;151.202;2023-04-03T05:57:42;20.70;99.90
25668;DHT22;18003;-33.830;151.202;2023-04-03T06:00:13;20.80;99.90
25668;DHT22;18003;-33.830;151.202;2023-04-03T06:02:45;20.70;99.90
25668;DHT22;18003;-33.830;151.202;2023-04-03T06:05:15;20.80;99.90
25668;DHT22;18003;-33.830;151.202;2023-04-03T06:07:45;20.70;99.90
25668;DHT22;18003;-33.830;151.202;2023-04-03T06:10:16;20.70;99.90
25668;DHT22;18003;-33.830;151.202;2023-04-03T06:12:46;20.70;99.90
25668;DHT22;18003;-33.830;151.202;2023-04-03T06:15:17;20.70;99.90
25668;DHT22;18003;-33.830;151.202;2023-04-03T06:17:47;20.70;99.90
25668;DHT22;18003;-33.830;151.202;2023-04-03T06:20:17;20.70;99.90
25668;DHT22;18003;-33.830;151.202;2023-04-03T06:22:47;20.70;99.90
25668;DHT22;18003;-33.830;151.202;2023-04-03T06:25:17;20.70;99.90
25668;DHT22;18003;-33.830;151.202;2023-04-03T06:27:47;20.70;99.90
25668;DHT22;18003;-33.830;151.202;2023-04-03T06:30:17;20.70;99.90
25668;DHT22;18003;-33.830;151.202;2023-04-03T06:32:47;20.60;99.90
25668;DHT22;18003;-33.830;151.202;2023-04-03T06:35:17;20.60;99.90
25668;DHT22;18003;-33.830;151.202;2023-04-03T06:37:47;20.60;99.90
25668;DHT22;18003;-33.830;151.202;2023-04-03T06:40:19;20.60;99.90
25668;DHT22;18003;-33.830;151.202;2023-04-03T06:42:50;20.60;99.90
25668;DHT22;18003;-33.830;151.202;2023-04-03T06:45:20;20.60;99.90
25668;DHT22;18003;-33.830;151.202;2023-04-03T06:47:50;20.60;99.90
25668;DHT22;18003;-33.830;151.202;2023-04-03T06:50:20;20.60;99.90
25668;DHT22;18003;-33.830;151.202;2023-04-03T06:52:51;20.70;99.90
25668;DHT22;18003;-33.830;151.202;2023-04-03T06:55:21;20.70;99.90
25668;DHT22;18003;-33.830;151.202;2023-04-03T06:57:51;20.80;99.90
25668;DHT22;18003;-33.830;151.202;2023-04-03T07:00:21;20.80;99.90
25668;DHT22;18003;-33.830;151.202;2023-04-03T07:02:51;20.80;99.90
25668;DHT22;18003;-33.830;151.202;2023-04-03T07:05:21;20.80;99.90
25668;DHT22;18003;-33.830;151.202;2023-04-03T07:07:51;20.80;99.90
25668;DHT22;18003;-33.830;151.202;2023-04-03T07:10:21;20.80;99.90
25668;DHT22;18003;-33.830;151.202;2023-04-03T07:12:51;20.80;99.90
25668;DHT22;18003;-33.830;151.202;2023-04-03T07:15:22;20.80;99.90
25668;DHT22;18003;-33.830;151.202;2023-04-03T07:17:53;20.80;99.90
25668;DHT22;18003;-33.830;151.202;2023-04-03T07:20:23;20.80;99.90
25668;DHT22;18003;-33.830;151.202;2023-04-03T07:22:53;20.80;99.90
25668;DHT22;18003;-33.830;151.202;2023-04-03T07:25:23;20.80;99.90
25668;DHT22;18003;-33.830;151.202;2023-04-03T07:27:53;20.80;99.90
25668;DHT22;18003;-33.830;151.202;2023-04-03T07:30:23;20.80;99.90
25668;DHT22;18003;-33.830;151.202;2023-04-03T07:32:54;20.80;99.90
25668;DHT22;18003;-33.830;151.202;2023-04-03T07:35:24;20.80;99.90
25668;DHT22;18003;-33.830;151.202;2023-04-03T07:37:54;20.80;99.90
25668;DHT22;18003;-33.830;151.202;2023-04-03T07:40:24;20.80;99.90
25668;DHT22;18003;-33.830;151.202;2023-04-03T07:42:54;20.80;99.90
25668;DHT22;18003;-33.830;151.202;2023-04-03T07:45:25;20.80;99.90
25668;DHT22;18003;-33.830;151.202;2023-04-03T07:47:56;20.80;99.90
25668;DHT22;18003;-33.830;151.202;2023-04-03T07:50:25;20.80;99.90
25668;DHT22;18003;-33.830;151.202;2023-04-03T07:52:56;20.80;99.90
25668;DHT22;18003;-33.830;151.202;2023-04-03T07:55:26;20.80;99.90
25668;DHT22;18003;-33.830;151.202;2023-04-03T07:57:56;20.80;99.90
25668;DHT22;18003;-33.830;151.202;2023-04-03T08:00:26;20.70;99.90
25668;DHT22;18003;-33.830;151.202;2023-04-03T08:02:56;20.70;99.90
25668;DHT22;18003;-33.830;151.202;2023-04-03T08:05:26;20.70;99.90
25668;DHT22;18003;-33.830;151.202;2023-04-03T08:07:56;20.70;99.90
25668;DHT22;18003;-33.830;151.202;2023-04-03T08:10:26;20.70;99.90
25668;DHT22;18003;-33.830;151.202;2023-04-03T08:12:56;20.70;99.90
25668;DHT22;18003;-33.830;151.202;2023-04-03T08:15:26;20.70;99.90
25668;DHT22;18003;-33.830;151.202;2023-04-03T08:17:57;20.70;99.90
25668;DHT22;18003;-33.830;151.202;2023-04-03T08:20:27;20.70;99.90
25668;DHT22;18003;-33.830;151.202;2023-04-03T08:22:57;20.70;99.90
25668;DHT22;18003;-33.830;151.202;2023-04-03T08:25:27;20.60;99.90
25668;DHT22;18003;-33.830;151.202;2023-04-03T08:27:57;20.70;99.90
25668;DHT22;18003;-33.830;151.202;2023-04-03T08:30:27;20.60;99.90
25668;DHT22;18003;-33.830;151.202;2023-04-03T08:32:59;20.60;99.90
25668;DHT22;18003;-33.830;151.202;2023-04-03T08:35:28;20.60;99.90
25668;DHT22;18003;-33.830;151.202;2023-04-03T08:37:58;20.60;99.90
25668;DHT22;18003;-33.830;151.202;2023-04-03T08:40:29;20.60;99.90
25668;DHT22;18003;-33.830;151.202;2023-04-03T08:43:15;20.60;99.90
25668;DHT22;18003;-33.830;151.202;2023-04-03T08:45:55;20.60;99.90
25668;DHT22;18003;-33.830;151.202;2023-04-03T08:48:31;20.60;99.90
25668;DHT22;18003;-33.830;151.202;2023-04-03T08:51:09;20.60;99.90
25668;DHT22;18003;-33.830;151.202;2023-04-03T08:53:39;20.60;99.90
25668;DHT22;18003;-33.830;151.202;2023-04-03T08:56:13;20.60;99.90
25668;DHT22;18003;-33.830;151.202;2023-04-03T09:01:34;20.60;99.90
25668;DHT22;18003;-33.830;151.202;2023-04-03T09:04:19;20.60;99.90
25668;DHT22;18003;-33.830;151.202;2023-04-03T09:06:35;20.60;99.90
25668;DHT22;18003;-33.830;151.202;2023-04-03T09:15:29;20.60;99.90
25668;DHT22;18003;-33.830;151.202;2023-04-03T09:17:55;20.60;99.90
25668;DHT22;18003;-33.830;151.202;2023-04-03T09:20:31;20.60;99.90
25668;DHT22;18003;-33.830;151.202;2023-04-03T09:22:58;20.60;99.90
25668;DHT22;18003;-33.830;151.202;2023-04-03T09:25:32;20.60;99.90
25668;DHT22;18003;-33.830;151.202;2023-04-03T09:28:03;20.50;99.90
25668;DHT22;18003;-33.830;151.202;2023-04-03T09:30:35;20.60;99.90
25668;DHT22;18003;-33.830;151.202;2023-04-03T09:33:09;20.50;99.90
25668;DHT22;18003;-33.830;151.202;2023-04-03T09:35:37;20.50;99.90
25668;DHT22;18003;-33.830;151.202;2023-04-03T09:40:45;20.50;99.90
25668;DHT22;18003;-33.830;151.202;2023-04-03T09:43:31;20.50;99.90
25668;DHT22;18003;-33.830;151.202;2023-04-03T09:46:28;20.50;99.90
25668;DHT22;18003;-33.830;151.202;2023-04-03T09:48:58;20.50;99.90
25668;DHT22;18003;-33.830;151.202;2023-04-03T09:51:30;20.50;99.90
25668;DHT22;18003;-33.830;151.202;2023-04-03T09:54:00;20.50;99.90
25668;DHT22;18003;-33.830;151.202;2023-04-03T09:56:31;20.50;99.90
25668;DHT22;18003;-33.830;151.202;2023-04-03T09:59:13;20.50;99.90
25668;DHT22;18003;-33.830;151.202;2023-04-03T10:01:55;20.50;99.90
25668;DHT22;18003;-33.830;151.202;2023-04-03T10:04:17;20.50;99.90
25668;DHT22;18003;-33.830;151.202;2023-04-03T10:06:49;20.50;99.90
25668;DHT22;18003;-33.830;151.202;2023-04-03T10:09:24;20.50;99.90
25668;DHT22;18003;-33.830;151.202;2023-04-03T10:12:11;20.50;99.90
25668;DHT22;18003;-33.830;151.202;2023-04-03T10:15:10;20.40;99.90
25668;DHT22;18003;-33.830;151.202;2023-04-03T10:17:24;20.40;99.90
25668;DHT22;18003;-33.830;151.202;2023-04-03T10:20:07;20.40;99.90
25668;DHT22;18003;-33.830;151.202;2023-04-03T10:22:56;20.40;99.90
25668;DHT22;18003;-33.830;151.202;2023-04-03T10:25:40;20.40;99.90
25668;DHT22;18003;-33.830;151.202;2023-04-03T10:50:33;20.40;99.90
25668;DHT22;18003;-33.830;151.202;2023-04-03T10:53:08;20.30;99.90
25668;DHT22;18003;-33.830;151.202;2023-04-03T10:55:45;20.40;99.90
25668;DHT22;18003;-33.830;151.202;2023-04-03T10:58:33;20.30;99.90
25668;DHT22;18003;-33.830;151.202;2023-04-03T11:00:47;20.40;99.90
25668;DHT22;18003;-33.830;151.202;2023-04-03T11:03:34;20.30;99.90
25668;DHT22;18003;-33.830;151.202;2023-04-03T11:06:01;20.30;99.90
25668;DHT22;18003;-33.830;151.202;2023-04-03T11:11:09;20.30;99.90
25668;DHT22;18003;-33.830;151.202;2023-04-03T11:13:58;20.30;99.90
25668;DHT22;18003;-33.830;151.202;2023-04-03T11:16:26;20.30;99.90
25668;DHT22;18003;-33.830;151.202;2023-04-03T11:19:11;20.30;99.90
25668;DHT22;18003;-33.830;151.202;2023-04-03T11:21:54;20.30;99.90
25668;DHT22;18003;-33.830;151.202;2023-04-03T11:24:31;20.30;99.90
25668;DHT22;18003;-33.830;151.202;2023-04-03T11:26:56;20.30;99.90
25668;DHT22;18003;-33.830;151.202;2023-04-03T11:29:27;20.30;99.90
25668;DHT22;18003;-33.830;151.202;2023-04-03T11:35:04;20.30;99.90
25668;DHT22;18003;-33.830;151.202;2023-04-03T11:37:48;20.30;99.90
25668;DHT22;18003;-33.830;151.202;2023-04-03T11:42:55;20.20;99.90
25668;DHT22;18003;-33.830;151.202;2023-04-03T11:45:29;20.30;99.90
25668;DHT22;18003;-33.830;151.202;2023-04-03T11:48:41;20.30;99.90
25668;DHT22;18003;-33.830;151.202;2023-04-03T11:50:42;20.30;99.90
25668;DHT22;18003;-33.830;151.202;2023-04-03T11:55:52;20.20;99.90
25668;DHT22;18003;-33.830;151.202;2023-04-03T12:03:31;20.20;99.90
25668;DHT22;18003;-33.830;151.202;2023-04-03T12:19:38;20.20;99.90
25668;DHT22;18003;-33.830;151.202;2023-04-03T12:22:17;20.20;99.90
25668;DHT22;18003;-33.830;151.202;2023-04-03T12:24:52;20.10;99.90
25668;DHT22;18003;-33.830;151.202;2023-04-03T12:27:38;20.20;99.90
25668;DHT22;18003;-33.830;151.202;2023-04-03T12:35:43;20.10;99.90
25668;DHT22;18003;-33.830;151.202;2023-04-03T12:41:19;20.10;99.90
25668;DHT22;18003;-33.830;151.202;2023-04-03T12:46:48;20.10;99.90
25668;DHT22;18003;-33.830;151.202;2023-04-03T12:49:35;20.10;99.90
25668;DHT22;18003;-33.830;151.202;2023-04-03T12:52:06;20.10;99.90
25668;DHT22;18003;-33.830;151.202;2023-04-03T12:54:39;20.10;99.90
25668;DHT22;18003;-33.830;151.202;2023-04-03T12:59:42;20.10;99.90
25668;DHT22;18003;-33.830;151.202;2023-04-03T13:02:32;20.10;99.90
25668;DHT22;18003;-33.830;151.202;2023-04-03T13:05:06;20.10;99.90
25668;DHT22;18003;-33.830;151.202;2023-04-03T13:07:38;20.00;99.90
25668;DHT22;18003;-33.830;151.202;2023-04-03T13:12:57;20.00;99.90
25668;DHT22;18003;-33.830;151.202;2023-04-03T13:15:42;20.00;99.90
25668;DHT22;18003;-33.830;151.202;2023-04-03T13:18:04;20.00;99.90
25668;DHT22;18003;-33.830;151.202;2023-04-03T13:20:35;20.00;99.90
25668;DHT22;18003;-33.830;151.202;2023-04-03T13:23:05;20.10;99.90
25668;DHT22;18003;-33.830;151.202;2023-04-03T13:25:40;20.00;99.90
25668;DHT22;18003;-33.830;151.202;2023-04-03T13:28:13;20.00;99.90
25668;DHT22;18003;-33.830;151.202;2023-04-03T13:30:58;20.00;99.90
25668;DHT22;18003;-33.830;151.202;2023-04-03T13:33:28;20.00;99.90
25668;DHT22;18003;-33.830;151.202;2023-04-03T13:36:02;20.00;99.90
25668;DHT22;18003;-33.830;151.202;2023-04-03T13:38:32;20.00;99.90
25668;DHT22;18003;-33.830;151.202;2023-04-03T13:41:04;20.00;99.90
25668;DHT22;18003;-33.830;151.202;2023-04-03T13:43:36;20.00;99.90
25668;DHT22;18003;-33.830;151.202;2023-04-03T13:48:50;19.90;99.90
25668;DHT22;18003;-33.830;151.202;2023-04-03T13:51:21;19.90;99.90
25668;DHT22;18003;-33.830;151.202;2023-04-03T13:53:55;19.90;99.90
25668;DHT22;18003;-33.830;151.202;2023-04-03T13:56:38;19.90;99.90
25668;DHT22;18003;-33.830;151.202;2023-04-03T14:04:26;19.90;99.90
25668;DHT22;18003;-33.830;151.202;2023-04-03T14:06:56;19.90;99.90
25668;DHT22;18003;-33.830;151.202;2023-04-03T14:09:27;19.90;99.90
25668;DHT22;18003;-33.830;151.202;2023-04-03T14:12:06;19.90;99.90
25668;DHT22;18003;-33.830;151.202;2023-04-03T14:14:36;19.80;99.90
25668;DHT22;18003;-33.830;151.202;2023-04-03T14:17:18;19.90;99.90
25668;DHT22;18003;-33.830;151.202;2023-04-03T14:19:49;19.90;99.90
25668;DHT22;18003;-33.830;151.202;2023-04-03T14:22:26;19.90;99.90
25668;DHT22;18003;-33.830;151.202;2023-04-03T14:24:52;19.90;99.90
25668;DHT22;18003;-33.830;151.202;2023-04-03T14:27:27;19.80;99.90
25668;DHT22;18003;-33.830;151.202;2023-04-03T14:29:57;19.90;99.90
25668;DHT22;18003;-33.830;151.202;2023-04-03T14:32:28;19.80;99.90
25668;DHT22;18003;-33.830;151.202;2023-04-03T14:34:58;19.80;99.90
25668;DHT22;18003;-33.830;151.202;2023-04-03T14:37:29;19.80;99.90
25668;DHT22;18003;-33.830;151.202;2023-04-03T14:40:01;19.80;99.90
25668;DHT22;18003;-33.830;151.202;2023-04-03T14:42:33;19.80;99.90
25668;DHT22;18003;-33.830;151.202;2023-04-03T14:45:05;19.90;99.90
25668;DHT22;18003;-33.830;151.202;2023-04-03T14:47:39;19.80;99.90
25668;DHT22;18003;-33.830;151.202;2023-04-03T14:50:11;19.80;99.90
25668;DHT22;18003;-33.830;151.202;2023-04-03T14:52:39;19.80;99.90
25668;DHT22;18003;-33.830;151.202;2023-04-03T14:55:11;19.80;99.90
25668;DHT22;18003;-33.830;151.202;2023-04-03T14:57:41;19.80;99.90
25668;DHT22;18003;-33.830;151.202;2023-04-03T15:00:19;19.80;99.90
25668;DHT22;18003;-33.830;151.202;2023-04-03T15:02:49;19.80;99.90
25668;DHT22;18003;-33.830;151.202;2023-04-03T15:05:19;19.80;99.90
25668;DHT22;18003;-33.830;151.202;2023-04-03T15:07:52;19.80;99.90
25668;DHT22;18003;-33.830;151.202;2023-04-03T15:10:26;19.80;99.90
25668;DHT22;18003;-33.830;151.202;2023-04-03T15:12:57;19.70;99.90
25668;DHT22;18003;-33.830;151.202;2023-04-03T15:15:28;19.70;99.90
25668;DHT22;18003;-33.830;151.202;2023-04-03T15:17:58;19.70;99.90
25668;DHT22;18003;-33.830;151.202;2023-04-03T15:20:29;19.70;99.90
25668;DHT22;18003;-33.830;151.202;2023-04-03T15:22:58;19.70;99.90
25668;DHT22;18003;-33.830;151.202;2023-04-03T15:25:33;19.70;99.90
25668;DHT22;18003;-33.830;151.202;2023-04-03T15:28:03;19.70;99.90
25668;DHT22;18003;-33.830;151.202;2023-04-03T15:30:33;19.70;99.90
25668;DHT22;18003;-33.830;151.202;2023-04-03T15:33:04;19.70;99.90
25668;DHT22;18003;-33.830;151.202;2023-04-03T15:35:33;19.70;99.90
25668;DHT22;18003;-33.830;151.202;2023-04-03T15:38:03;19.60;99.90
25668;DHT22;18003;-33.830;151.202;2023-04-03T15:40:33;19.70;99.90
25668;DHT22;18003;-33.830;151.202;2023-04-03T15:43:04;19.70;99.90
25668;DHT22;18003;-33.830;151.202;2023-04-03T15:45:34;19.70;99.90
25668;DHT22;18003;-33.830;151.202;2023-04-03T15:48:05;19.60;99.90
25668;DHT22;18003;-33.830;151.202;2023-04-03T15:50:35;19.60;99.90
25668;DHT22;18003;-33.830;151.202;2023-04-03T15:53:06;19.60;99.90
25668;DHT22;18003;-33.830;151.202;2023-04-03T15:55:37;19.60;99.90
25668;DHT22;18003;-33.830;151.202;2023-04-03T15:58:07;19.70;99.90
25668;DHT22;18003;-33.830;151.202;2023-04-03T16:00:37;19.60;99.90
25668;DHT22;18003;-33.830;151.202;2023-04-03T16:03:10;19.60;99.90
25668;DHT22;18003;-33.830;151.202;2023-04-03T16:05:41;19.60;99.90
25668;DHT22;18003;-33.830;151.202;2023-04-03T16:08:11;19.60;99.90
25668;DHT22;18003;-33.830;151.202;2023-04-03T16:10:41;19.60;99.90
25668;DHT22;18003;-33.830;151.202;2023-04-03T16:13:12;19.60;99.90
25668;DHT22;18003;-33.830;151.202;2023-04-03T16:15:42;19.60;99.90
25668;DHT22;18003;-33.830;151.202;2023-04-03T16:18:12;19.60;99.90
25668;DHT22;18003;-33.830;151.202;2023-04-03T16:20:42;19.60;99.90
25668;DHT22;18003;-33.830;151.202;2023-04-03T16:23:13;19.60;99.90
25668;DHT22;18003;-33.830;151.202;2023-04-03T16:25:43;19.60;99.90
25668;DHT22;18003;-33.830;151.202;2023-04-03T16:28:14;19.60;99.90
25668;DHT22;18003;-33.830;151.202;2023-04-03T16:30:45;19.60;99.90
25668;DHT22;18003;-33.830;151.202;2023-04-03T16:33:17;19.60;99.90
25668;DHT22;18003;-33.830;151.202;2023-04-03T16:35:48;19.50;99.90
25668;DHT22;18003;-33.830;151.202;2023-04-03T16:38:18;19.50;99.90
25668;DHT22;18003;-33.830;151.202;2023-04-03T16:40:50;19.50;99.90
25668;DHT22;18003;-33.830;151.202;2023-04-03T16:43:21;19.50;99.90
25668;DHT22;18003;-33.830;151.202;2023-04-03T16:45:51;19.50;99.90
25668;DHT22;18003;-33.830;151.202;2023-04-03T16:48:21;19.50;99.90